Relevés horaires Matro (Suisse)


Relevés horaires à Matro - Vendredi 18 Févr. 2022
Heure UTC1 Température [°C] Vent [km/h] Hum. [%] Pres.4 [hPa] Visi. [Km] Nébu. [octa] Préc.5 [mm] Cond.
2m. Res. Ros. Dir.2 Vit. Moy. Raf.3
23:00 -3.3 -9.5 -3.3 SE 20.4 -- 46.3 100 850(-0.1/3h) -- -- -- --
22:00 -3.2 -10.6 -3.2 SE 29.6 -- 46.3 100 850(-0.5/3h) -- -- -- --
21:00 -3.4 -10.9 -3.4 SE 29.6 -- 40.7 100 850(-0.7/3h) -- -- -- --
20:00 0.0 -6.2 -10.2 SE 27.8 -- 33.3 46 850(-0.2/3h) -- -- -- --
19:00 0.1 -5.2 -9.8 SE 20.4 -- 25.9 47 850(-0.3/3h) -- -- -- --
18:00 0.1 -5.7 -8.5 SE 24.1 -- 46.3 52 850(-0.3/3h) -- -- -- --
17:00 1.3 -4.7 -9.0 SSE 29.6 -- 33.3 46 850(-1.1/3h) -- -- -- --
16:00 1.6 -3.7 -8.5 SSE 24.1 -- 38.9 47 850(-1.1/3h) -- -- -- --
15:00 3.2 -2.3 -8.6 SSE 29.6 -- 46.3 42 850(-1.4/3h) -- -- -- --
14:00 3.7 -1.6 -9.0 SSE 29.6 -- 42.6 39 850(-1.7/3h) -- -- -- --
13:00 3.6 -1.9 -9.2 SSE 31.5 -- 46.3 38 850(-1.4/3h) -- -- -- --
12:00 3.7 -1.4 -9.5 SSE 27.8 -- 44.4 37 850(-0.5/3h) -- -- -- --
11:00 3.5 -0.9 -10.6 SSE 20.4 -- 33.3 35 850(0.0/3h) -- -- -- --
10:00 3.5 -0.4 -11.1 SSE 16.7 -- 24.1 33 850(0.3/3h) -- -- -- --
09:00 3.3 0 -11.4 SE 13.0 -- 18.5 33 850(0.0/3h) -- -- -- --
08:00 3.0 0 -11.1 SSE 11.1 -- 13.0 35 850(0.2/3h) -- -- -- --
07:00 3.3 3.3 -10.4 ESE 3.7 -- 9.3 36 850(0.2/3h) -- -- -- --
06:00 3.3 3.3 -10.5 SSE 1.9 -- 59.3 35 850(0.3/3h) -- -- -- --
05:00 2.9 1.5 -11.4 ONO 5.6 -- 22.2 34 850(-0.1/3h) -- -- -- --
04:00 2.7 -1.9 -12.7 NNO 20.4 -- 25.9 31 850(0.0/3h) -- -- -- --
03:00 2.4 -1.7 -13.5 NO 16.7 -- 59.3 30 850(-0.4/3h) -- -- -- --
02:00 2.0 -3 -16.9 NNO 22.2 -- 50.0 23 850(0.0/3h) -- -- -- --
01:00 2.3 -4.5 -18.2 NO 42.6 -- 59.3 20 850(0.5/3h) -- -- -- --
00:00 1.8 -4.6 -19.2 NO 35.2 -- 81.5 19 850(0.4/3h) -- -- -- --

1 Coordinated Universal Time. Actuellement il est 08:00 locale et 06:00 UTC.

2 Le vent souffle depuis la direction indiquée vers la direction oposée.

3 Les rafales max. sont disponible 40 min après l'heure du relevé.

4 Pour les stations d'altitude (plus de 600m) le géopotentiel du niveau le plus proche de la pression obligatoire est indiqué.

5 Les stations disposant d'un diffuseur peuvent indiquer "trace". Cela signifie que des précipitations ont touchés le sol mais que la quantité est inférieure à 0.1 mm.

Copyright

Les données affichées sur cette page sont la propriété exclusive de Météo Suisse.

Récapitulatif de la journée
Température [°C] Vent [km/h] Ensoleillement4 [h] Precipitations totale5 [mm] Pression [Hpa]
Min1 Max.2 Moy.3 Max. Min Max.
0.3 4.5 0 81.5 7 h 54 min 0 850.0 850.0

1 Température minimale relevée entre 18:00 UTC la veille et 18:00 UTC le jour donné.

2 Température maximale relevée entre 06:00 UTC le jour donné et 06:00 UTC le lendemain.

3 Vent moyen de la journée basé sur les relevés horaires.

4 Ensoleillement en heures relevé entre 06:00 UTC la veille et 06:00 UTC le jour donné.

5 Précipitations totales tombées entre 06:00 UTC la jour donné et 06:00 UTC le lendemain.

Graphiques horaires